sensor_id;sensor_type;location;lat;lon;timestamp;pressure;altitude;pressure_sealevel;temperature;humidity
21203;BME280;10759;51.982;9.232;2023-03-21T00:02:21;100478.81;;;10.03;100.00
21203;BME280;10759;51.982;9.232;2023-03-21T00:04:49;100474.84;;;10.15;100.00
21203;BME280;10759;51.982;9.232;2023-03-21T00:07:20;100482.03;;;10.15;100.00
21203;BME280;10759;51.982;9.232;2023-03-21T00:09:48;100483.44;;;10.25;100.00
21203;BME280;10759;51.982;9.232;2023-03-21T00:12:18;100456.69;;;9.98;100.00
21203;BME280;10759;51.982;9.232;2023-03-21T00:14:46;100469.78;;;10.07;100.00
21203;BME280;10759;51.982;9.232;2023-03-21T00:17:14;100447.38;;;10.10;100.00
21203;BME280;10759;51.982;9.232;2023-03-21T00:19:43;100470.53;;;10.38;100.00
21203;BME280;10759;51.982;9.232;2023-03-21T00:22:11;100458.00;;;10.38;100.00
21203;BME280;10759;51.982;9.232;2023-03-21T00:24:39;100449.44;;;10.02;100.00
21203;BME280;10759;51.982;9.232;2023-03-21T00:27:07;100462.50;;;10.11;100.00
21203;BME280;10759;51.982;9.232;2023-03-21T00:29:56;100456.94;;;10.17;100.00
21203;BME280;10759;51.982;9.232;2023-03-21T00:32:25;100458.69;;;10.18;100.00
21203;BME280;10759;51.982;9.232;2023-03-21T00:34:53;100452.13;;;10.27;100.00
21203;BME280;10759;51.982;9.232;2023-03-21T00:37:41;100451.31;;;10.25;100.00
21203;BME280;10759;51.982;9.232;2023-03-21T00:40:11;100452.88;;;10.05;100.00
21203;BME280;10759;51.982;9.232;2023-03-21T00:42:53;100447.56;;;10.04;100.00
21203;BME280;10759;51.982;9.232;2023-03-21T00:45:22;100444.53;;;10.15;100.00
21203;BME280;10759;51.982;9.232;2023-03-21T00:47:50;100443.66;;;10.14;100.00
21203;BME280;10759;51.982;9.232;2023-03-21T00:50:18;100438.25;;;9.89;100.00
21203;BME280;10759;51.982;9.232;2023-03-21T00:52:46;100442.16;;;10.05;100.00
21203;BME280;10759;51.982;9.232;2023-03-21T00:55:16;100421.25;;;10.17;100.00
21203;BME280;10759;51.982;9.232;2023-03-21T00:57:44;100410.00;;;10.07;100.00
21203;BME280;10759;51.982;9.232;2023-03-21T01:00:28;100424.84;;;10.16;100.00
21203;BME280;10759;51.982;9.232;2023-03-21T01:02:56;100391.34;;;10.04;100.00
21203;BME280;10759;51.982;9.232;2023-03-21T01:05:41;100430.88;;;10.22;100.00
21203;BME280;10759;51.982;9.232;2023-03-21T01:08:26;100427.00;;;10.31;100.00
21203;BME280;10759;51.982;9.232;2023-03-21T01:11:12;100424.47;;;10.26;100.00
21203;BME280;10759;51.982;9.232;2023-03-21T01:13:43;100432.22;;;10.09;100.00
21203;BME280;10759;51.982;9.232;2023-03-21T01:16:24;100428.47;;;10.15;100.00
21203;BME280;10759;51.982;9.232;2023-03-21T01:18:52;100421.81;;;10.26;100.00
21203;BME280;10759;51.982;9.232;2023-03-21T01:21:21;100422.25;;;10.14;100.00
21203;BME280;10759;51.982;9.232;2023-03-21T01:23:49;100424.41;;;10.03;100.00
21203;BME280;10759;51.982;9.232;2023-03-21T01:26:17;100417.69;;;10.16;100.00
21203;BME280;10759;51.982;9.232;2023-03-21T01:28:45;100423.13;;;10.15;100.00
21203;BME280;10759;51.982;9.232;2023-03-21T01:31:14;100418.06;;;10.05;100.00
21203;BME280;10759;51.982;9.232;2023-03-21T01:33:45;100417.09;;;10.08;100.00
21203;BME280;10759;51.982;9.232;2023-03-21T01:36:17;100421.34;;;10.14;100.00
21203;BME280;10759;51.982;9.232;2023-03-21T01:38:50;100422.00;;;10.20;100.00
21203;BME280;10759;51.982;9.232;2023-03-21T01:41:20;100418.19;;;10.02;100.00
21203;BME280;10759;51.982;9.232;2023-03-21T01:44:14;100417.47;;;9.97;100.00
21203;BME280;10759;51.982;9.232;2023-03-21T01:46:43;100420.34;;;9.91;100.00
21203;BME280;10759;51.982;9.232;2023-03-21T01:49:46;100412.28;;;9.93;100.00
21203;BME280;10759;51.982;9.232;2023-03-21T01:52:23;100419.94;;;10.03;100.00
21203;BME280;10759;51.982;9.232;2023-03-21T01:55:05;100384.97;;;9.83;100.00
21203;BME280;10759;51.982;9.232;2023-03-21T01:57:45;100417.63;;;10.18;100.00
21203;BME280;10759;51.982;9.232;2023-03-21T02:00:35;100408.38;;;10.01;100.00
21203;BME280;10759;51.982;9.232;2023-03-21T02:03:19;100415.88;;;9.92;100.00
21203;BME280;10759;51.982;9.232;2023-03-21T02:06:43;100413.38;;;10.12;100.00
21203;BME280;10759;51.982;9.232;2023-03-21T02:09:36;100399.84;;;10.17;100.00
21203;BME280;10759;51.982;9.232;2023-03-21T02:12:12;100407.47;;;10.27;100.00
21203;BME280;10759;51.982;9.232;2023-03-21T02:14:42;100402.91;;;10.31;100.00
21203;BME280;10759;51.982;9.232;2023-03-21T02:17:22;100403.25;;;10.20;100.00
21203;BME280;10759;51.982;9.232;2023-03-21T02:23:38;100387.66;;;10.33;100.00
21203;BME280;10759;51.982;9.232;2023-03-21T02:26:26;100385.81;;;10.08;100.00
21203;BME280;10759;51.982;9.232;2023-03-21T02:29:27;100381.16;;;9.90;100.00
21203;BME280;10759;51.982;9.232;2023-03-21T02:32:08;100376.88;;;10.09;100.00
21203;BME280;10759;51.982;9.232;2023-03-21T02:35:12;100354.34;;;10.15;100.00
21203;BME280;10759;51.982;9.232;2023-03-21T02:37:51;100363.59;;;10.06;100.00
21203;BME280;10759;51.982;9.232;2023-03-21T02:40:31;100361.88;;;10.04;100.00
21203;BME280;10759;51.982;9.232;2023-03-21T02:43:04;100367.09;;;10.08;100.00
21203;BME280;10759;51.982;9.232;2023-03-21T02:45:52;100363.53;;;9.83;100.00
21203;BME280;10759;51.982;9.232;2023-03-21T02:48:24;100372.16;;;10.16;100.00
21203;BME280;10759;51.982;9.232;2023-03-21T02:51:13;100370.75;;;10.06;100.00
21203;BME280;10759;51.982;9.232;2023-03-21T02:53:47;100364.19;;;10.15;100.00
21203;BME280;10759;51.982;9.232;2023-03-21T02:56:36;100365.31;;;10.34;100.00
21203;BME280;10759;51.982;9.232;2023-03-21T02:59:06;100360.16;;;10.28;100.00
21203;BME280;10759;51.982;9.232;2023-03-21T03:01:35;100301.25;;;10.03;100.00
21203;BME280;10759;51.982;9.232;2023-03-21T03:04:17;100361.34;;;9.94;100.00
21203;BME280;10759;51.982;9.232;2023-03-21T03:07:02;100341.97;;;10.13;100.00
21203;BME280;10759;51.982;9.232;2023-03-21T03:09:42;100352.66;;;10.13;100.00
21203;BME280;10759;51.982;9.232;2023-03-21T03:12:19;100357.31;;;10.07;100.00
21203;BME280;10759;51.982;9.232;2023-03-21T03:14:54;100349.34;;;10.06;100.00
21203;BME280;10759;51.982;9.232;2023-03-21T03:17:39;100328.72;;;10.08;100.00
21203;BME280;10759;51.982;9.232;2023-03-21T03:20:18;100343.53;;;10.18;100.00
21203;BME280;10759;51.982;9.232;2023-03-21T03:22:53;100353.25;;;10.21;100.00
21203;BME280;10759;51.982;9.232;2023-03-21T03:25:27;100323.34;;;10.09;100.00
21203;BME280;10759;51.982;9.232;2023-03-21T03:28:12;100336.31;;;10.20;100.00
21203;BME280;10759;51.982;9.232;2023-03-21T03:30:42;100347.47;;;10.33;100.00
21203;BME280;10759;51.982;9.232;2023-03-21T03:33:32;100320.50;;;10.14;100.00
21203;BME280;10759;51.982;9.232;2023-03-21T03:36:04;100307.56;;;10.02;100.00
21203;BME280;10759;51.982;9.232;2023-03-21T03:38:37;100351.41;;;10.23;100.00
21203;BME280;10759;51.982;9.232;2023-03-21T03:41:09;100344.38;;;10.19;100.00
21203;BME280;10759;51.982;9.232;2023-03-21T03:43:48;100347.19;;;10.41;100.00
21203;BME280;10759;51.982;9.232;2023-03-21T03:46:22;100330.38;;;10.37;100.00
21203;BME280;10759;51.982;9.232;2023-03-21T03:48:55;100324.97;;;10.39;100.00
21203;BME280;10759;51.982;9.232;2023-03-21T03:51:29;100334.31;;;10.50;100.00
21203;BME280;10759;51.982;9.232;2023-03-21T03:54:11;100330.16;;;10.65;100.00
21203;BME280;10759;51.982;9.232;2023-03-21T03:56:42;100333.75;;;10.66;100.00
21203;BME280;10759;51.982;9.232;2023-03-21T03:59:10;100334.53;;;10.68;100.00
21203;BME280;10759;51.982;9.232;2023-03-21T04:01:53;100302.16;;;10.50;100.00
21203;BME280;10759;51.982;9.232;2023-03-21T04:04:21;100326.75;;;10.62;100.00
21203;BME280;10759;51.982;9.232;2023-03-21T04:06:54;100336.66;;;10.60;100.00
21203;BME280;10759;51.982;9.232;2023-03-21T04:09:24;100341.25;;;10.56;100.00
21203;BME280;10759;51.982;9.232;2023-03-21T04:12:11;100255.44;;;10.10;100.00
21203;BME280;10759;51.982;9.232;2023-03-21T04:14:45;100324.06;;;10.62;100.00
21203;BME280;10759;51.982;9.232;2023-03-21T04:17:16;100321.38;;;10.62;100.00
21203;BME280;10759;51.982;9.232;2023-03-21T04:19:44;100296.94;;;10.47;100.00
21203;BME280;10759;51.982;9.232;2023-03-21T04:22:12;100306.47;;;10.55;100.00
21203;BME280;10759;51.982;9.232;2023-03-21T04:24:42;100322.31;;;10.61;100.00
21203;BME280;10759;51.982;9.232;2023-03-21T04:27:13;100311.00;;;10.52;100.00
21203;BME280;10759;51.982;9.232;2023-03-21T04:29:46;100241.94;;;10.14;100.00
21203;BME280;10759;51.982;9.232;2023-03-21T04:32:24;100326.19;;;10.53;100.00
21203;BME280;10759;51.982;9.232;2023-03-21T04:35:07;100319.59;;;10.39;100.00
21203;BME280;10759;51.982;9.232;2023-03-21T04:37:36;100317.25;;;10.29;100.00
21203;BME280;10759;51.982;9.232;2023-03-21T04:40:11;100308.75;;;10.42;100.00
21203;BME280;10759;51.982;9.232;2023-03-21T04:42:46;100309.63;;;10.42;100.00
21203;BME280;10759;51.982;9.232;2023-03-21T04:45:15;100301.25;;;10.51;100.00
21203;BME280;10759;51.982;9.232;2023-03-21T04:47:44;100311.28;;;10.46;100.00
21203;BME280;10759;51.982;9.232;2023-03-21T04:50:12;100299.56;;;10.49;100.00
21203;BME280;10759;51.982;9.232;2023-03-21T04:52:42;100288.25;;;10.41;100.00
21203;BME280;10759;51.982;9.232;2023-03-21T04:55:09;100296.69;;;10.53;100.00
21203;BME280;10759;51.982;9.232;2023-03-21T04:57:37;100302.16;;;10.50;100.00
21203;BME280;10759;51.982;9.232;2023-03-21T05:00:09;100245.03;;;10.26;100.00
21203;BME280;10759;51.982;9.232;2023-03-21T05:02:38;100298.44;;;10.55;100.00
21203;BME280;10759;51.982;9.232;2023-03-21T05:05:07;100253.69;;;10.35;100.00
21203;BME280;10759;51.982;9.232;2023-03-21T05:07:36;100293.81;;;10.58;100.00
21203;BME280;10759;51.982;9.232;2023-03-21T05:10:06;100293.78;;;10.60;100.00
21203;BME280;10759;51.982;9.232;2023-03-21T05:12:34;100297.00;;;10.68;100.00
21203;BME280;10759;51.982;9.232;2023-03-21T05:15:03;100254.31;;;10.41;100.00
21203;BME280;10759;51.982;9.232;2023-03-21T05:17:32;100289.22;;;10.62;100.00
21203;BME280;10759;51.982;9.232;2023-03-21T05:20:00;100289.44;;;10.56;100.00
21203;BME280;10759;51.982;9.232;2023-03-21T05:22:32;100287.41;;;10.62;100.00
21203;BME280;10759;51.982;9.232;2023-03-21T05:25:09;100277.34;;;10.45;100.00
21203;BME280;10759;51.982;9.232;2023-03-21T05:28:07;100288.19;;;10.42;100.00
21203;BME280;10759;51.982;9.232;2023-03-21T05:30:35;100284.66;;;10.42;100.00
21203;BME280;10759;51.982;9.232;2023-03-21T05:33:04;100295.28;;;10.43;100.00
21203;BME280;10759;51.982;9.232;2023-03-21T05:35:33;100289.06;;;10.43;100.00
21203;BME280;10759;51.982;9.232;2023-03-21T05:38:04;100288.66;;;10.53;100.00
21203;BME280;10759;51.982;9.232;2023-03-21T05:40:45;100300.16;;;10.56;100.00
21203;BME280;10759;51.982;9.232;2023-03-21T05:43:13;100292.72;;;10.64;100.00
21203;BME280;10759;51.982;9.232;2023-03-21T05:45:41;100288.97;;;10.68;100.00
21203;BME280;10759;51.982;9.232;2023-03-21T05:48:11;100274.63;;;10.47;100.00
21203;BME280;10759;51.982;9.232;2023-03-21T05:50:57;100271.66;;;10.55;100.00
21203;BME280;10759;51.982;9.232;2023-03-21T05:53:25;100301.19;;;10.75;100.00
21203;BME280;10759;51.982;9.232;2023-03-21T05:55:53;100294.75;;;10.81;100.00
21203;BME280;10759;51.982;9.232;2023-03-21T05:58:38;100300.84;;;10.84;100.00
21203;BME280;10759;51.982;9.232;2023-03-21T06:01:06;100291.16;;;10.80;100.00
21203;BME280;10759;51.982;9.232;2023-03-21T06:03:38;100303.50;;;10.84;100.00
21203;BME280;10759;51.982;9.232;2023-03-21T06:06:12;100295.34;;;10.87;100.00
21203;BME280;10759;51.982;9.232;2023-03-21T06:09:06;100301.34;;;10.94;100.00
21203;BME280;10759;51.982;9.232;2023-03-21T06:11:36;100299.28;;;11.01;100.00
21203;BME280;10759;51.982;9.232;2023-03-21T06:14:28;100291.25;;;11.01;100.00
21203;BME280;10759;51.982;9.232;2023-03-21T06:17:15;100286.78;;;11.00;100.00
21203;BME280;10759;51.982;9.232;2023-03-21T06:19:56;100295.78;;;10.99;100.00
21203;BME280;10759;51.982;9.232;2023-03-21T06:22:28;100303.19;;;10.92;100.00
21203;BME280;10759;51.982;9.232;2023-03-21T06:24:56;100295.25;;;10.90;100.00
21203;BME280;10759;51.982;9.232;2023-03-21T06:27:25;100292.09;;;10.79;100.00
21203;BME280;10759;51.982;9.232;2023-03-21T06:29:54;100292.47;;;10.92;100.00
21203;BME280;10759;51.982;9.232;2023-03-21T06:32:24;100295.66;;;11.02;100.00
21203;BME280;10759;51.982;9.232;2023-03-21T06:34:59;100299.59;;;10.93;100.00
21203;BME280;10759;51.982;9.232;2023-03-21T06:37:27;100301.09;;;11.00;100.00
21203;BME280;10759;51.982;9.232;2023-03-21T06:39:55;100302.38;;;11.12;100.00
21203;BME280;10759;51.982;9.232;2023-03-21T06:42:24;100303.06;;;10.95;100.00
21203;BME280;10759;51.982;9.232;2023-03-21T06:44:57;100300.59;;;11.12;100.00
21203;BME280;10759;51.982;9.232;2023-03-21T06:47:26;100307.16;;;11.05;100.00
21203;BME280;10759;51.982;9.232;2023-03-21T06:49:55;100293.84;;;11.02;100.00
21203;BME280;10759;51.982;9.232;2023-03-21T06:52:24;100290.25;;;11.03;100.00
21203;BME280;10759;51.982;9.232;2023-03-21T06:54:52;100302.88;;;11.22;100.00
21203;BME280;10759;51.982;9.232;2023-03-21T06:57:20;100243.34;;;10.91;100.00
21203;BME280;10759;51.982;9.232;2023-03-21T06:59:49;100276.81;;;11.25;100.00
21203;BME280;10759;51.982;9.232;2023-03-21T07:02:19;100303.50;;;11.49;100.00
21203;BME280;10759;51.982;9.232;2023-03-21T07:05:08;100296.66;;;11.42;100.00
21203;BME280;10759;51.982;9.232;2023-03-21T07:07:37;100297.22;;;11.50;100.00
21203;BME280;10759;51.982;9.232;2023-03-21T07:10:06;100303.31;;;11.33;100.00
21203;BME280;10759;51.982;9.232;2023-03-21T07:12:43;100292.91;;;11.25;100.00
21203;BME280;10759;51.982;9.232;2023-03-21T07:15:23;100268.41;;;11.12;100.00
21203;BME280;10759;51.982;9.232;2023-03-21T07:17:52;100303.56;;;11.27;100.00
21203;BME280;10759;51.982;9.232;2023-03-21T07:20:19;100305.00;;;11.35;100.00
21203;BME280;10759;51.982;9.232;2023-03-21T07:22:49;100286.53;;;11.28;100.00
21203;BME280;10759;51.982;9.232;2023-03-21T07:25:17;100298.13;;;11.28;100.00
21203;BME280;10759;51.982;9.232;2023-03-21T07:27:47;100277.47;;;11.30;100.00
21203;BME280;10759;51.982;9.232;2023-03-21T07:30:15;100305.59;;;11.42;100.00
21203;BME280;10759;51.982;9.232;2023-03-21T07:32:43;100309.63;;;11.52;100.00
21203;BME280;10759;51.982;9.232;2023-03-21T07:35:15;100303.78;;;11.43;100.00
21203;BME280;10759;51.982;9.232;2023-03-21T07:37:44;100298.09;;;11.50;100.00
21203;BME280;10759;51.982;9.232;2023-03-21T07:40:16;100300.09;;;11.66;100.00
21203;BME280;10759;51.982;9.232;2023-03-21T07:42:47;100289.91;;;11.53;100.00
21203;BME280;10759;51.982;9.232;2023-03-21T07:45:26;100288.09;;;11.74;100.00
21203;BME280;10759;51.982;9.232;2023-03-21T07:47:54;100293.31;;;11.77;100.00
21203;BME280;10759;51.982;9.232;2023-03-21T07:50:22;100273.47;;;11.81;100.00
21203;BME280;10759;51.982;9.232;2023-03-21T07:52:50;100284.06;;;12.05;100.00
21203;BME280;10759;51.982;9.232;2023-03-21T07:55:20;100286.09;;;12.00;100.00
21203;BME280;10759;51.982;9.232;2023-03-21T07:57:48;100290.59;;;11.99;100.00
21203;BME280;10759;51.982;9.232;2023-03-21T08:00:18;100275.34;;;12.00;100.00
21203;BME280;10759;51.982;9.232;2023-03-21T08:02:49;100282.19;;;12.07;100.00
21203;BME280;10759;51.982;9.232;2023-03-21T08:05:28;100285.28;;;11.98;100.00
21203;BME280;10759;51.982;9.232;2023-03-21T08:07:56;100292.47;;;11.97;100.00
21203;BME280;10759;51.982;9.232;2023-03-21T08:10:25;100293.78;;;12.08;100.00
21203;BME280;10759;51.982;9.232;2023-03-21T08:12:53;100292.16;;;12.24;98.24
21203;BME280;10759;51.982;9.232;2023-03-21T08:15:21;100287.81;;;12.21;99.53
21203;BME280;10759;51.982;9.232;2023-03-21T08:17:49;100285.91;;;12.23;99.77
21203;BME280;10759;51.982;9.232;2023-03-21T08:20:19;100284.72;;;12.10;97.63
21203;BME280;10759;51.982;9.232;2023-03-21T08:22:48;100265.78;;;12.13;98.36
21203;BME280;10759;51.982;9.232;2023-03-21T08:25:18;100269.78;;;12.42;98.63
21203;BME280;10759;51.982;9.232;2023-03-21T08:27:49;100283.66;;;12.71;96.53
21203;BME280;10759;51.982;9.232;2023-03-21T08:30:19;100278.88;;;12.40;97.23
21203;BME280;10759;51.982;9.232;2023-03-21T08:32:48;100279.09;;;12.54;97.10
21203;BME280;10759;51.982;9.232;2023-03-21T08:35:18;100254.09;;;12.14;96.88
21203;BME280;10759;51.982;9.232;2023-03-21T08:37:46;100283.38;;;12.58;96.87
21203;BME280;10759;51.982;9.232;2023-03-21T08:40:16;100286.28;;;12.73;95.54
21203;BME280;10759;51.982;9.232;2023-03-21T08:42:44;100291.06;;;12.85;95.88
21203;BME280;10759;51.982;9.232;2023-03-21T08:45:16;100294.63;;;12.66;95.23
21203;BME280;10759;51.982;9.232;2023-03-21T08:47:44;100291.94;;;12.66;94.99
21203;BME280;10759;51.982;9.232;2023-03-21T08:50:14;100291.56;;;12.93;94.84
21203;BME280;10759;51.982;9.232;2023-03-21T08:52:42;100292.66;;;12.89;93.62
21203;BME280;10759;51.982;9.232;2023-03-21T08:55:11;100270.75;;;12.97;94.26
21203;BME280;10759;51.982;9.232;2023-03-21T08:57:39;100295.53;;;13.03;91.31
21203;BME280;10759;51.982;9.232;2023-03-21T09:00:10;100286.13;;;12.95;88.85
21203;BME280;10759;51.982;9.232;2023-03-21T09:02:41;100293.19;;;13.15;92.07
21203;BME280;10759;51.982;9.232;2023-03-21T09:05:10;100212.84;;;12.53;90.79
21203;BME280;10759;51.982;9.232;2023-03-21T09:07:38;100294.19;;;13.31;90.23
21203;BME280;10759;51.982;9.232;2023-03-21T09:10:11;100291.50;;;13.31;89.59
21203;BME280;10759;51.982;9.232;2023-03-21T09:12:49;100220.66;;;12.94;91.22
21203;BME280;10759;51.982;9.232;2023-03-21T09:15:17;100282.91;;;13.23;89.20
21203;BME280;10759;51.982;9.232;2023-03-21T09:17:49;100292.06;;;13.38;89.90
21203;BME280;10759;51.982;9.232;2023-03-21T09:20:19;100295.41;;;13.24;91.81
21203;BME280;10759;51.982;9.232;2023-03-21T09:22:52;100293.78;;;13.39;89.42
21203;BME280;10759;51.982;9.232;2023-03-21T09:25:20;100215.38;;;12.93;89.46
21203;BME280;10759;51.982;9.232;2023-03-21T09:27:49;100286.09;;;13.31;88.57
21203;BME280;10759;51.982;9.232;2023-03-21T09:30:18;100284.94;;;13.00;90.58
21203;BME280;10759;51.982;9.232;2023-03-21T09:32:52;100285.97;;;12.79;92.85
21203;BME280;10759;51.982;9.232;2023-03-21T09:35:21;100308.72;;;12.72;92.80
21203;BME280;10759;51.982;9.232;2023-03-21T09:37:50;100305.44;;;12.84;92.29
21203;BME280;10759;51.982;9.232;2023-03-21T09:40:21;100298.41;;;12.81;94.78
21203;BME280;10759;51.982;9.232;2023-03-21T09:42:57;100308.13;;;12.84;92.73
21203;BME280;10759;51.982;9.232;2023-03-21T09:45:32;100297.09;;;12.71;95.71
21203;BME280;10759;51.982;9.232;2023-03-21T09:48:14;100305.00;;;12.74;94.04
21203;BME280;10759;51.982;9.232;2023-03-21T09:50:45;100287.88;;;12.77;95.75
21203;BME280;10759;51.982;9.232;2023-03-21T09:53:22;100298.97;;;12.88;93.85
21203;BME280;10759;51.982;9.232;2023-03-21T09:55:52;100301.81;;;12.85;95.81
21203;BME280;10759;51.982;9.232;2023-03-21T09:58:24;100283.88;;;12.85;94.09
21203;BME280;10759;51.982;9.232;2023-03-21T10:00:59;100293.41;;;13.10;93.17
21203;BME280;10759;51.982;9.232;2023-03-21T10:03:32;100284.56;;;12.89;95.65
21203;BME280;10759;51.982;9.232;2023-03-21T10:06:04;100260.47;;;12.68;97.85
21203;BME280;10759;51.982;9.232;2023-03-21T10:08:39;100301.72;;;12.86;97.06
21203;BME280;10759;51.982;9.232;2023-03-21T10:11:12;100269.34;;;12.71;99.46
21203;BME280;10759;51.982;9.232;2023-03-21T10:13:45;100295.69;;;13.00;98.91
21203;BME280;10759;51.982;9.232;2023-03-21T10:16:18;100288.66;;;12.98;98.92
21203;BME280;10759;51.982;9.232;2023-03-21T10:18:49;100266.56;;;12.91;100.00
21203;BME280;10759;51.982;9.232;2023-03-21T10:21:20;100288.44;;;13.20;100.00
21203;BME280;10759;51.982;9.232;2023-03-21T10:24:11;100288.34;;;13.21;100.00
21203;BME280;10759;51.982;9.232;2023-03-21T10:26:42;100224.03;;;12.63;97.83
21203;BME280;10759;51.982;9.232;2023-03-21T10:29:12;100285.59;;;13.23;99.74
21203;BME280;10759;51.982;9.232;2023-03-21T10:31:42;100276.47;;;13.27;100.00
21203;BME280;10759;51.982;9.232;2023-03-21T10:34:15;100264.34;;;12.99;100.00
21203;BME280;10759;51.982;9.232;2023-03-21T10:36:45;100238.38;;;12.81;100.00
21203;BME280;10759;51.982;9.232;2023-03-21T10:39:21;100246.13;;;12.87;100.00
21203;BME280;10759;51.982;9.232;2023-03-21T10:41:51;100275.13;;;13.17;100.00
21203;BME280;10759;51.982;9.232;2023-03-21T10:44:19;100268.41;;;13.27;100.00
21203;BME280;10759;51.982;9.232;2023-03-21T10:46:50;100270.84;;;13.31;100.00
21203;BME280;10759;51.982;9.232;2023-03-21T10:49:21;100252.25;;;13.27;100.00
21203;BME280;10759;51.982;9.232;2023-03-21T10:51:50;100257.94;;;13.56;100.00
21203;BME280;10759;51.982;9.232;2023-03-21T10:54:20;100184.84;;;13.11;99.42
21203;BME280;10759;51.982;9.232;2023-03-21T10:56:55;100222.31;;;13.33;100.00
21203;BME280;10759;51.982;9.232;2023-03-21T10:59:25;100261.75;;;13.51;100.00
21203;BME280;10759;51.982;9.232;2023-03-21T11:01:55;100257.28;;;13.68;100.00
21203;BME280;10759;51.982;9.232;2023-03-21T11:04:26;100263.66;;;13.32;100.00
21203;BME280;10759;51.982;9.232;2023-03-21T11:06:57;100258.44;;;13.46;100.00
21203;BME280;10759;51.982;9.232;2023-03-21T11:09:43;100241.06;;;13.52;100.00
21203;BME280;10759;51.982;9.232;2023-03-21T11:12:12;100242.72;;;13.72;100.00
21203;BME280;10759;51.982;9.232;2023-03-21T11:14:42;100245.72;;;13.66;100.00
21203;BME280;10759;51.982;9.232;2023-03-21T11:17:22;100245.16;;;13.77;100.00
21203;BME280;10759;51.982;9.232;2023-03-21T11:19:53;100242.63;;;13.21;100.00
21203;BME280;10759;51.982;9.232;2023-03-21T11:22:26;100228.66;;;13.32;100.00
21203;BME280;10759;51.982;9.232;2023-03-21T11:25:00;100243.34;;;13.25;100.00
21203;BME280;10759;51.982;9.232;2023-03-21T11:27:28;100249.22;;;13.33;100.00
21203;BME280;10759;51.982;9.232;2023-03-21T11:30:00;100246.75;;;13.28;98.25
21203;BME280;10759;51.982;9.232;2023-03-21T11:32:33;100172.22;;;12.59;96.51
21203;BME280;10759;51.982;9.232;2023-03-21T11:35:04;100249.34;;;13.13;98.48
21203;BME280;10759;51.982;9.232;2023-03-21T11:37:36;100251.69;;;13.01;99.57
21203;BME280;10759;51.982;9.232;2023-03-21T11:40:17;100244.22;;;12.89;100.00
21203;BME280;10759;51.982;9.232;2023-03-21T11:42:48;100251.50;;;12.87;100.00
21203;BME280;10759;51.982;9.232;2023-03-21T11:45:18;100248.38;;;12.96;100.00
21203;BME280;10759;51.982;9.232;2023-03-21T11:47:49;100245.69;;;13.14;100.00
21203;BME280;10759;51.982;9.232;2023-03-21T11:50:25;100241.25;;;12.95;100.00
21203;BME280;10759;51.982;9.232;2023-03-21T11:53:12;100231.03;;;13.02;100.00
21203;BME280;10759;51.982;9.232;2023-03-21T11:55:50;100226.69;;;12.99;100.00
21203;BME280;10759;51.982;9.232;2023-03-21T11:58:35;100240.56;;;13.26;100.00
21203;BME280;10759;51.982;9.232;2023-03-21T12:01:11;100237.75;;;13.29;100.00
21203;BME280;10759;51.982;9.232;2023-03-21T12:03:56;100234.19;;;13.29;100.00
21203;BME280;10759;51.982;9.232;2023-03-21T12:06:32;100220.06;;;13.24;100.00
21203;BME280;10759;51.982;9.232;2023-03-21T12:09:08;100157.66;;;12.82;100.00
21203;BME280;10759;51.982;9.232;2023-03-21T12:11:51;100225.69;;;13.19;100.00
21203;BME280;10759;51.982;9.232;2023-03-21T12:14:29;100222.56;;;13.28;100.00
21203;BME280;10759;51.982;9.232;2023-03-21T12:17:08;100194.09;;;12.88;100.00
21203;BME280;10759;51.982;9.232;2023-03-21T12:20:02;100212.16;;;13.03;100.00
21203;BME280;10759;51.982;9.232;2023-03-21T12:22:43;100210.19;;;13.24;100.00
21203;BME280;10759;51.982;9.232;2023-03-21T12:25:15;100193.03;;;13.09;100.00
21203;BME280;10759;51.982;9.232;2023-03-21T12:27:51;100198.53;;;13.24;100.00
21203;BME280;10759;51.982;9.232;2023-03-21T12:30:32;100189.53;;;13.07;100.00
21203;BME280;10759;51.982;9.232;2023-03-21T12:33:17;100189.53;;;13.25;100.00
21203;BME280;10759;51.982;9.232;2023-03-21T12:36:05;100182.97;;;13.30;100.00
21203;BME280;10759;51.982;9.232;2023-03-21T12:38:42;100178.94;;;13.39;100.00
21203;BME280;10759;51.982;9.232;2023-03-21T12:41:22;100173.06;;;13.31;100.00
21203;BME280;10759;51.982;9.232;2023-03-21T12:43:55;100161.50;;;13.11;100.00
21203;BME280;10759;51.982;9.232;2023-03-21T12:46:29;100175.44;;;13.02;100.00
21203;BME280;10759;51.982;9.232;2023-03-21T12:49:02;100177.63;;;12.94;100.00
21203;BME280;10759;51.982;9.232;2023-03-21T12:51:38;100149.66;;;12.98;100.00
21203;BME280;10759;51.982;9.232;2023-03-21T12:54:15;100161.38;;;13.15;100.00
21203;BME280;10759;51.982;9.232;2023-03-21T12:56:49;100175.06;;;13.27;100.00
21203;BME280;10759;51.982;9.232;2023-03-21T12:59:29;100167.06;;;13.08;100.00
21203;BME280;10759;51.982;9.232;2023-03-21T13:02:05;100163.09;;;13.16;100.00
21203;BME280;10759;51.982;9.232;2023-03-21T13:04:44;100166.41;;;13.03;100.00
21203;BME280;10759;51.982;9.232;2023-03-21T13:07:16;100147.19;;;12.94;100.00
21203;BME280;10759;51.982;9.232;2023-03-21T13:09:47;100168.81;;;13.09;100.00
21203;BME280;10759;51.982;9.232;2023-03-21T13:12:20;100151.00;;;13.07;100.00
21203;BME280;10759;51.982;9.232;2023-03-21T13:14:58;100148.78;;;13.15;100.00
21203;BME280;10759;51.982;9.232;2023-03-21T13:17:33;100150.44;;;13.18;100.00
21203;BME280;10759;51.982;9.232;2023-03-21T13:20:11;100142.31;;;13.19;100.00
21203;BME280;10759;51.982;9.232;2023-03-21T13:22:45;100133.34;;;13.01;100.00